createdAt,value
2023-01-22T00:01:18.017Z,1.95
2023-01-22T00:03:46.741Z,2.58
2023-01-22T00:06:14.672Z,1.88
2023-01-22T00:08:42.168Z,2.15
2023-01-22T00:11:10.341Z,3.08
2023-01-22T00:13:37.182Z,1.80
2023-01-22T00:16:04.286Z,3.53
2023-01-22T00:18:31.256Z,2.15
2023-01-22T00:20:58.237Z,1.88
2023-01-22T00:23:25.281Z,1.75
2023-01-22T00:26:05.650Z,2.60
2023-01-22T00:28:32.781Z,3.53
2023-01-22T00:31:04.544Z,1.75
2023-01-22T00:33:32.633Z,2.17
2023-01-22T00:36:13.556Z,2.10
2023-01-22T00:38:41.440Z,3.33
2023-01-22T00:41:09.738Z,1.98
2023-01-22T00:43:40.623Z,1.95
2023-01-22T00:46:13.557Z,2.13
2023-01-22T00:48:41.032Z,3.67
2023-01-22T00:51:08.789Z,2.30
2023-01-22T00:53:41.400Z,2.63
2023-01-22T00:56:09.526Z,2.28
2023-01-22T00:58:36.331Z,1.77
2023-01-22T01:01:03.782Z,2.28
2023-01-22T01:03:33.125Z,2.40
2023-01-22T01:06:21.624Z,2.35
2023-01-22T01:08:49.688Z,2.40
2023-01-22T01:11:22.321Z,2.63
2023-01-22T01:13:50.476Z,2.30
2023-01-22T01:16:26.732Z,2.40
2023-01-22T01:18:57.215Z,2.33
2023-01-22T01:21:24.088Z,2.75
2023-01-22T01:23:50.997Z,2.33
2023-01-22T01:26:18.527Z,2.83
2023-01-22T01:28:45.721Z,1.88
2023-01-22T01:31:15.277Z,1.42
2023-01-22T01:33:42.939Z,2.05
2023-01-22T01:36:30.622Z,1.13
2023-01-22T01:39:03.894Z,1.50
2023-01-22T01:41:30.799Z,2.67
2023-01-22T01:44:17.532Z,1.65
2023-01-22T01:46:46.948Z,2.97
2023-01-22T01:49:28.320Z,1.38
2023-01-22T01:52:00.901Z,1.90
2023-01-22T01:54:29.167Z,2.60
2023-01-22T01:57:02.664Z,2.00
2023-01-22T01:59:33.461Z,1.98
2023-01-22T02:02:02.042Z,2.13
2023-01-22T02:04:29.421Z,2.58
2023-01-22T02:06:56.413Z,2.67
2023-01-22T02:09:23.659Z,1.63
2023-01-22T02:11:52.099Z,2.25
2023-01-22T02:14:22.514Z,1.92
2023-01-22T02:17:11.588Z,2.35
2023-01-22T02:19:39.649Z,2.10
2023-01-22T02:22:37.286Z,2.17
2023-01-22T02:25:04.492Z,1.95
2023-01-22T02:27:31.366Z,2.67
2023-01-22T02:29:58.274Z,2.25
2023-01-22T02:32:25.031Z,1.58
2023-01-22T02:34:53.830Z,3.17
2023-01-22T02:37:20.779Z,1.40
2023-01-22T02:39:48.209Z,1.23
2023-01-22T02:42:15.135Z,1.45
2023-01-22T02:44:43.326Z,1.63
2023-01-22T02:47:10.121Z,2.08
2023-01-22T02:49:37.072Z,1.65
2023-01-22T02:52:04.158Z,1.48
2023-01-22T02:54:31.517Z,1.92
2023-01-22T02:56:58.297Z,2.70
2023-01-22T02:59:25.343Z,1.33
2023-01-22T03:01:52.227Z,1.05
2023-01-22T03:04:19.145Z,1.40
2023-01-22T03:06:47.399Z,1.75
2023-01-22T03:09:16.873Z,1.50
2023-01-22T03:11:45.287Z,2.55
2023-01-22T03:14:41.445Z,1.95
2023-01-22T03:17:27.359Z,1.00
2023-01-22T03:20:12.717Z,1.30
2023-01-22T03:22:39.521Z,1.63
2023-01-22T03:25:06.683Z,1.13
2023-01-22T03:27:33.675Z,2.47
2023-01-22T03:30:00.614Z,1.20
2023-01-22T03:32:32.586Z,1.45
2023-01-22T03:34:59.628Z,1.65
2023-01-22T03:37:32.354Z,2.08
2023-01-22T03:40:00.250Z,1.58
2023-01-22T03:42:35.205Z,2.38
2023-01-22T03:45:02.102Z,2.17
2023-01-22T03:47:29.044Z,1.13
2023-01-22T03:49:55.895Z,1.70
2023-01-22T03:52:22.941Z,1.30
2023-01-22T03:54:49.881Z,2.00
2023-01-22T03:57:17.521Z,1.65
2023-01-22T03:59:44.574Z,2.15
2023-01-22T04:02:11.928Z,1.10
2023-01-22T04:04:51.591Z,1.63
2023-01-22T04:07:18.463Z,1.42
2023-01-22T04:09:46.277Z,1.23
2023-01-22T04:12:13.184Z,1.90
2023-01-22T04:14:40.059Z,1.85
2023-01-22T04:17:07.881Z,2.13
2023-01-22T04:19:50.882Z,1.65
2023-01-22T04:22:45.012Z,0.60
2023-01-22T04:25:13.176Z,1.95
2023-01-22T04:27:39.971Z,1.48
2023-01-22T04:30:07.961Z,2.15
2023-01-22T04:32:35.317Z,1.42
2023-01-22T04:35:15.840Z,1.70
2023-01-22T04:37:50.437Z,2.13
2023-01-22T04:40:18.244Z,2.75
2023-01-22T04:42:47.012Z,1.83
2023-01-22T04:45:14.933Z,0.98
2023-01-22T04:47:43.785Z,1.65
2023-01-22T04:50:22.782Z,2.33
2023-01-22T04:52:51.433Z,1.33
2023-01-22T04:55:19.844Z,2.33
2023-01-22T04:57:56.453Z,1.48
2023-01-22T05:00:24.452Z,2.28
2023-01-22T05:02:59.692Z,2.30
2023-01-22T05:05:28.786Z,2.85
2023-01-22T05:07:55.819Z,1.95
2023-01-22T05:10:23.643Z,2.30
2023-01-22T05:12:50.679Z,3.30
2023-01-22T05:15:24.359Z,2.63
2023-01-22T05:17:54.168Z,1.45
2023-01-22T05:20:21.651Z,2.00
2023-01-22T05:22:49.007Z,2.00
2023-01-22T05:25:18.910Z,2.95
2023-01-22T05:27:46.977Z,1.95
2023-01-22T05:30:20.048Z,2.10
2023-01-22T05:33:06.212Z,1.75
2023-01-22T05:35:33.062Z,1.00
2023-01-22T05:37:59.909Z,1.80
2023-01-22T05:40:26.942Z,1.80
2023-01-22T05:42:54.098Z,1.55
2023-01-22T05:45:21.828Z,1.45
2023-01-22T05:48:07.358Z,1.83
2023-01-22T05:50:43.719Z,2.38
2023-01-22T05:53:11.674Z,2.35
2023-01-22T05:55:38.482Z,1.90
2023-01-22T05:58:06.386Z,2.28
2023-01-22T06:00:34.700Z,1.40
2023-01-22T06:03:04.520Z,1.15
2023-01-22T06:05:41.990Z,1.60
2023-01-22T06:08:08.806Z,2.58
2023-01-22T06:10:42.985Z,1.45
2023-01-22T06:13:09.909Z,2.17
2023-01-22T06:15:36.903Z,1.02
2023-01-22T06:18:23.647Z,1.60
2023-01-22T06:20:51.263Z,2.08
2023-01-22T06:23:19.886Z,2.08
2023-01-22T06:25:53.188Z,1.60
2023-01-22T06:28:20.564Z,1.75
2023-01-22T06:30:47.894Z,2.25
2023-01-22T06:33:15.203Z,3.97
2023-01-22T06:35:42.911Z,1.90
2023-01-22T06:38:09.889Z,2.38
2023-01-22T06:40:36.894Z,2.05
2023-01-22T06:43:10.563Z,1.92
2023-01-22T06:45:38.468Z,2.53
2023-01-22T06:48:08.284Z,2.63
2023-01-22T06:50:35.128Z,1.63
2023-01-22T06:53:02.618Z,1.67
2023-01-22T06:55:29.473Z,1.48
2023-01-22T06:57:57.147Z,1.70
2023-01-22T07:00:24.455Z,3.90
2023-01-22T07:02:51.989Z,2.78
2023-01-22T07:05:20.054Z,2.35
2023-01-22T07:07:47.573Z,1.83
2023-01-22T07:10:14.495Z,1.85
2023-01-22T07:12:41.305Z,2.28
2023-01-22T07:15:08.577Z,2.42
2023-01-22T07:17:37.017Z,1.70
2023-01-22T07:20:05.312Z,2.30
2023-01-22T07:22:35.103Z,1.90
2023-01-22T07:25:02.059Z,1.30
2023-01-22T07:27:30.354Z,3.50
2023-01-22T07:29:57.340Z,1.98
2023-01-22T07:32:24.104Z,2.20
2023-01-22T07:34:50.956Z,1.80
2023-01-22T07:37:17.755Z,2.30
2023-01-22T07:39:44.595Z,1.45
2023-01-22T07:42:12.947Z,3.10
2023-01-22T07:44:42.827Z,3.00
2023-01-22T07:47:09.905Z,3.13
2023-01-22T07:49:36.739Z,2.80
2023-01-22T07:52:03.602Z,2.85
2023-01-22T07:54:31.035Z,2.30
2023-01-22T07:56:57.818Z,2.42
2023-01-22T07:59:24.738Z,4.00
2023-01-22T08:01:53.415Z,2.47
2023-01-22T08:04:20.305Z,1.98
2023-01-22T08:06:47.128Z,2.88
2023-01-22T08:09:15.513Z,2.50
2023-01-22T08:11:42.307Z,2.10
2023-01-22T08:14:09.158Z,1.83
2023-01-22T08:16:36.697Z,2.45
2023-01-22T08:19:03.638Z,2.95
2023-01-22T08:21:30.473Z,2.80
2023-01-22T08:23:57.301Z,1.77
2023-01-22T08:26:24.088Z,2.22
2023-01-22T08:28:51.100Z,2.47
2023-01-22T08:31:27.352Z,3.42
2023-01-22T08:33:55.551Z,2.13
2023-01-22T08:36:22.410Z,3.25
2023-01-22T08:38:49.361Z,4.20
2023-01-22T08:41:16.206Z,3.35
2023-01-22T08:43:43.003Z,2.25
2023-01-22T08:46:09.870Z,3.05
2023-01-22T08:48:36.702Z,4.00
2023-01-22T08:51:03.628Z,2.33
2023-01-22T08:53:30.682Z,3.72
2023-01-22T08:55:57.488Z,3.17
2023-01-22T08:58:25.330Z,3.30
2023-01-22T09:00:52.273Z,2.85
2023-01-22T09:03:19.161Z,2.90
2023-01-22T09:05:46.785Z,2.80
2023-01-22T09:08:13.816Z,2.10
2023-01-22T09:10:40.665Z,2.08
2023-01-22T09:13:07.609Z,2.45
2023-01-22T09:15:34.415Z,3.63
2023-01-22T09:18:01.314Z,3.13
2023-01-22T09:20:28.220Z,3.10
2023-01-22T09:22:55.146Z,3.15
2023-01-22T09:25:21.963Z,2.83
2023-01-22T09:27:48.817Z,3.33
2023-01-22T09:30:16.347Z,4.93
2023-01-22T09:32:43.484Z,6.53
2023-01-22T09:35:10.452Z,4.18
2023-01-22T09:37:37.356Z,3.35
2023-01-22T09:40:04.770Z,1.40
2023-01-22T09:42:37.531Z,3.15
2023-01-22T09:45:10.982Z,2.63
2023-01-22T09:47:44.284Z,2.80
2023-01-22T09:50:28.647Z,1.60
2023-01-22T09:53:01.056Z,2.25
2023-01-22T09:55:31.502Z,2.20
2023-01-22T09:58:02.437Z,2.58
2023-01-22T10:00:38.830Z,2.85
2023-01-22T10:03:14.173Z,2.28
2023-01-22T10:05:49.601Z,2.22
2023-01-22T10:08:37.697Z,2.33
2023-01-22T10:11:07.729Z,3.70
2023-01-22T10:13:37.405Z,3.75
2023-01-22T10:16:05.533Z,2.25
2023-01-22T10:18:50.405Z,3.05
2023-01-22T10:21:20.275Z,1.52
2023-01-22T10:23:48.867Z,2.55
2023-01-22T10:26:24.994Z,2.20
2023-01-22T10:28:56.775Z,3.17
2023-01-22T10:31:30.943Z,4.40
2023-01-22T10:34:10.578Z,3.22
2023-01-22T10:36:37.420Z,2.55
2023-01-22T10:39:13.270Z,3.60
2023-01-22T10:41:45.482Z,2.42
2023-01-22T10:44:26.635Z,3.38
2023-01-22T10:49:27.806Z,2.50
2023-01-22T10:51:59.874Z,3.70
2023-01-22T10:54:33.872Z,3.75
2023-01-22T10:57:24.036Z,3.03
2023-01-22T11:00:06.340Z,3.73
2023-01-22T11:02:35.302Z,3.33
2023-01-22T11:05:26.790Z,2.38
2023-01-22T11:07:58.713Z,4.45
2023-01-22T11:10:38.390Z,2.70
2023-01-22T11:13:13.492Z,5.55
2023-01-22T11:15:49.870Z,9.50
2023-01-22T11:18:38.620Z,7.00
2023-01-22T11:21:25.801Z,8.38
2023-01-22T11:24:14.583Z,5.93
2023-01-22T11:27:02.046Z,5.80
2023-01-22T11:30:02.411Z,4.97
2023-01-22T11:33:06.932Z,2.53
2023-01-22T11:36:01.386Z,3.65
2023-01-22T11:38:34.431Z,4.78
2023-01-22T11:41:33.748Z,3.97
2023-01-22T11:44:25.916Z,3.58
2023-01-22T11:46:57.479Z,3.33
2023-01-22T11:49:57.731Z,1.98
2023-01-22T11:52:46.564Z,2.35
2023-01-22T11:55:54.634Z,3.08
2023-01-22T11:58:51.276Z,3.03
2023-01-22T12:01:24.419Z,2.63
2023-01-22T12:04:02.690Z,2.78
2023-01-22T12:07:02.099Z,3.55
2023-01-22T12:09:44.067Z,3.67
2023-01-22T12:12:16.588Z,2.35
2023-01-22T12:15:01.486Z,2.70
2023-01-22T12:17:28.287Z,2.70
2023-01-22T12:20:08.304Z,3.33
2023-01-22T12:22:43.664Z,2.75
2023-01-22T12:25:25.758Z,4.57
2023-01-22T12:28:20.648Z,2.88
2023-01-22T12:31:05.641Z,2.80
2023-01-22T12:33:38.985Z,2.22
2023-01-22T12:36:09.854Z,1.73
2023-01-22T12:38:46.637Z,2.95
2023-01-22T12:41:13.533Z,2.25
2023-01-22T12:43:56.074Z,3.90
2023-01-22T12:46:31.757Z,3.15
2023-01-22T12:49:10.237Z,2.17
2023-01-22T12:51:37.085Z,4.63
2023-01-22T12:54:25.507Z,3.17
2023-01-22T12:57:08.820Z,3.30
2023-01-22T12:59:35.652Z,4.57
2023-01-22T13:02:25.420Z,13.13
2023-01-22T13:04:54.057Z,11.20
2023-01-22T13:07:24.749Z,5.05
2023-01-22T13:10:26.208Z,7.95
2023-01-22T13:12:55.565Z,7.35
2023-01-22T13:15:27.361Z,3.72
2023-01-22T13:18:21.789Z,3.53
2023-01-22T13:21:14.329Z,4.28
2023-01-22T13:23:50.707Z,3.42
2023-01-22T13:26:23.642Z,4.03
2023-01-22T13:29:06.022Z,5.10
2023-01-22T13:31:34.693Z,3.42
2023-01-22T13:34:10.659Z,4.75
2023-01-22T13:36:44.021Z,4.22
2023-01-22T13:39:31.573Z,2.72
2023-01-22T13:42:01.464Z,2.72
2023-01-22T13:44:41.613Z,3.40
2023-01-22T13:47:08.657Z,2.43
2023-01-22T13:49:42.622Z,2.38
2023-01-22T13:52:18.318Z,4.85
2023-01-22T13:55:05.668Z,8.68
2023-01-22T13:57:33.032Z,6.35
2023-01-22T14:00:01.747Z,2.50
2023-01-22T14:02:37.262Z,2.55
2023-01-22T14:05:04.416Z,2.50
2023-01-22T14:07:34.001Z,3.50
2023-01-22T14:10:23.440Z,3.42
2023-01-22T14:13:10.321Z,3.60
2023-01-22T14:15:39.070Z,3.72
2023-01-22T14:18:16.168Z,2.05
2023-01-22T14:20:45.525Z,2.75
2023-01-22T14:23:13.054Z,2.80
2023-01-22T14:25:42.736Z,3.00
2023-01-22T14:28:09.794Z,2.78
2023-01-22T14:30:36.956Z,3.90
2023-01-22T14:33:04.468Z,2.58
2023-01-22T14:35:31.471Z,2.78
2023-01-22T14:37:58.613Z,4.65
2023-01-22T14:40:27.000Z,2.92
2023-01-22T14:42:54.076Z,2.58
2023-01-22T14:45:21.699Z,18.98
2023-01-22T14:47:53.032Z,13.80
2023-01-22T14:50:21.575Z,7.30
2023-01-22T14:52:49.296Z,4.00
2023-01-22T14:55:16.261Z,4.63
2023-01-22T14:57:43.664Z,2.75
2023-01-22T15:00:14.071Z,2.50
2023-01-22T15:02:41.675Z,4.82
2023-01-22T15:05:09.863Z,3.33
2023-01-22T15:07:37.491Z,2.85
2023-01-22T15:10:06.144Z,4.03
2023-01-22T15:12:33.329Z,3.78
2023-01-22T15:15:00.246Z,4.13
2023-01-22T15:17:27.132Z,2.30
2023-01-22T15:19:53.931Z,3.13
2023-01-22T15:22:20.711Z,3.42
2023-01-22T15:24:47.502Z,2.45
2023-01-22T15:27:18.438Z,3.63
2023-01-22T15:29:46.287Z,3.25
2023-01-22T15:32:13.246Z,11.30
2023-01-22T15:34:40.518Z,19.45
2023-01-22T15:37:07.497Z,10.60
2023-01-22T15:39:34.745Z,4.88
2023-01-22T15:42:01.574Z,4.18
2023-01-22T15:44:29.244Z,3.80
2023-01-22T15:46:58.760Z,4.20
2023-01-22T15:49:25.783Z,4.22
2023-01-22T15:51:52.928Z,3.17
2023-01-22T15:54:19.775Z,4.25
2023-01-22T15:56:46.681Z,3.97
2023-01-22T15:59:13.643Z,9.02
2023-01-22T16:01:40.569Z,9.27
2023-01-22T16:04:08.037Z,6.03
2023-01-22T16:06:35.533Z,4.60
2023-01-22T16:09:04.932Z,4.63
2023-01-22T16:11:32.882Z,2.38
2023-01-22T16:14:00.158Z,5.18
2023-01-22T16:16:34.771Z,4.95
2023-01-22T16:19:03.264Z,6.15
2023-01-22T16:21:30.403Z,11.30
2023-01-22T16:24:00.126Z,6.95
2023-01-22T16:26:36.945Z,4.93
2023-01-22T16:29:05.812Z,4.60
2023-01-22T16:31:34.669Z,3.72
2023-01-22T16:34:11.735Z,4.63
2023-01-22T16:36:38.996Z,4.40
2023-01-22T16:39:06.578Z,5.20
2023-01-22T16:41:35.090Z,3.72
2023-01-22T16:44:10.795Z,2.78
2023-01-22T16:46:40.797Z,4.25
2023-01-22T16:49:16.476Z,3.03
2023-01-22T16:51:55.095Z,2.75
2023-01-22T16:54:33.745Z,3.97
2023-01-22T16:57:03.609Z,3.67
2023-01-22T16:59:31.741Z,4.57
2023-01-22T17:02:00.392Z,3.35
2023-01-22T17:04:28.578Z,4.00
2023-01-22T17:06:57.659Z,4.45
2023-01-22T17:09:27.308Z,5.43
2023-01-22T17:12:00.160Z,4.53
2023-01-22T17:14:29.698Z,3.67
2023-01-22T17:16:58.407Z,3.65
2023-01-22T17:19:25.867Z,4.63
2023-01-22T17:21:59.130Z,4.65
2023-01-22T17:24:30.354Z,4.53
2023-01-22T17:27:02.603Z,8.05
2023-01-22T17:29:31.966Z,7.07
2023-01-22T17:31:58.924Z,4.45
2023-01-22T17:34:25.978Z,3.58
2023-01-22T17:36:52.961Z,5.85
2023-01-22T17:39:21.149Z,4.28
2023-01-22T17:41:48.093Z,5.20
2023-01-22T17:44:15.017Z,5.43
2023-01-22T17:46:41.988Z,4.38
2023-01-22T17:49:11.150Z,5.43
2023-01-22T17:51:38.883Z,5.57
2023-01-22T17:54:06.098Z,4.80
2023-01-22T17:56:35.640Z,4.70
2023-01-22T17:59:05.368Z,4.85
2023-01-22T18:01:33.362Z,3.70
2023-01-22T18:04:03.037Z,4.25
2023-01-22T18:06:30.334Z,4.35
2023-01-22T18:08:57.726Z,4.75
2023-01-22T18:11:29.885Z,4.15
2023-01-22T18:14:05.015Z,5.25
2023-01-22T18:16:34.802Z,4.68
2023-01-22T18:19:03.569Z,4.18
2023-01-22T18:21:30.598Z,3.10
2023-01-22T18:23:59.029Z,4.25
2023-01-22T18:26:26.576Z,3.08
2023-01-22T18:28:55.836Z,4.78
2023-01-22T18:31:27.321Z,4.57
2023-01-22T18:33:56.191Z,3.28
2023-01-22T18:36:25.289Z,2.97
2023-01-22T18:38:52.877Z,4.38
2023-01-22T18:41:23.723Z,3.65
2023-01-22T18:43:58.899Z,17.38
2023-01-22T18:46:29.886Z,9.95
2023-01-22T18:51:26.074Z,2.47
2023-01-22T18:53:53.211Z,4.57
2023-01-22T18:56:20.405Z,4.68
2023-01-22T18:58:48.131Z,4.45
2023-01-22T19:01:23.705Z,5.85
2023-01-22T19:03:59.079Z,3.67
2023-01-22T19:06:29.267Z,5.00
2023-01-22T19:09:02.577Z,5.23
2023-01-22T19:11:35.093Z,4.55
2023-01-22T19:14:03.120Z,4.15
2023-01-22T19:16:31.643Z,5.35
2023-01-22T19:19:00.922Z,4.45
2023-01-22T19:21:28.675Z,5.10
2023-01-22T19:24:00.754Z,3.78
2023-01-22T19:26:36.874Z,4.88
2023-01-22T19:29:08.113Z,3.92
2023-01-22T19:31:40.891Z,3.63
2023-01-22T19:34:08.949Z,4.35
2023-01-22T19:36:38.724Z,3.85
2023-01-22T19:39:12.262Z,4.25
2023-01-22T19:41:42.632Z,3.47
2023-01-22T19:44:13.936Z,5.90
2023-01-22T19:46:41.362Z,2.80
2023-01-22T19:49:09.793Z,4.32
2023-01-22T19:51:36.804Z,4.03
2023-01-22T19:54:05.555Z,4.45
2023-01-22T19:56:35.916Z,4.43
2023-01-22T19:59:06.751Z,2.90
2023-01-22T20:01:34.812Z,3.35
2023-01-22T20:04:01.859Z,4.15
2023-01-22T20:06:28.724Z,3.35
2023-01-22T20:08:56.926Z,3.22
2023-01-22T20:11:25.035Z,4.00
2023-01-22T20:13:52.593Z,4.75
2023-01-22T20:16:25.191Z,3.90
2023-01-22T20:18:53.229Z,2.85
2023-01-22T20:21:21.309Z,3.92
2023-01-22T20:23:49.280Z,3.97
2023-01-22T20:26:17.792Z,3.63
2023-01-22T20:28:45.373Z,4.22
2023-01-22T20:31:19.859Z,4.13
2023-01-22T20:33:46.951Z,3.70
2023-01-22T20:36:17.524Z,2.53
2023-01-22T20:38:46.224Z,2.50
2023-01-22T20:41:15.812Z,5.10
2023-01-22T20:43:43.712Z,3.75
2023-01-22T20:46:13.527Z,3.75
2023-01-22T20:48:40.643Z,2.75
2023-01-22T20:51:28.851Z,3.10
2023-01-22T20:53:57.286Z,4.07
2023-01-22T20:56:28.801Z,3.75
2023-01-22T20:58:57.375Z,3.67
2023-01-22T21:01:25.315Z,4.20
2023-01-22T21:03:52.984Z,4.47
2023-01-22T21:06:20.696Z,4.70
2023-01-22T21:08:50.258Z,4.07
2023-01-22T21:11:19.695Z,3.72
2023-01-22T21:13:48.012Z,5.47
2023-01-22T21:16:27.075Z,3.28
2023-01-22T21:19:00.658Z,3.95
2023-01-22T21:21:28.681Z,5.07
2023-01-22T21:23:56.088Z,4.68
2023-01-22T21:26:26.638Z,5.28
2023-01-22T21:28:55.809Z,4.28
2023-01-22T21:31:23.755Z,4.00
2023-01-22T21:33:52.649Z,3.70
2023-01-22T21:36:20.047Z,2.92
2023-01-22T21:38:47.697Z,3.83
2023-01-22T21:41:17.355Z,3.17
2023-01-22T21:44:04.841Z,4.40
2023-01-22T21:46:37.437Z,4.88
2023-01-22T21:49:16.136Z,5.45
2023-01-22T21:51:45.653Z,4.13
2023-01-22T21:54:15.035Z,4.13
2023-01-22T21:56:42.204Z,3.03
2023-01-22T21:59:09.702Z,3.92
2023-01-22T22:01:36.910Z,3.53
2023-01-22T22:04:05.154Z,6.13
2023-01-22T22:06:33.330Z,5.38
2023-01-22T22:09:02.789Z,4.07
2023-01-22T22:11:30.053Z,2.85
2023-01-22T22:13:56.920Z,4.15
2023-01-22T22:16:24.210Z,3.83
2023-01-22T22:18:51.471Z,3.83
2023-01-22T22:21:18.303Z,3.80
2023-01-22T22:23:45.157Z,3.95
2023-01-22T22:26:12.029Z,4.20
2023-01-22T22:28:50.291Z,5.63
2023-01-22T22:31:18.117Z,3.92
2023-01-22T22:33:49.824Z,4.68
2023-01-22T22:36:19.894Z,3.97
2023-01-22T22:38:53.586Z,3.50
2023-01-22T22:41:28.913Z,4.60
2023-01-22T22:44:05.221Z,3.38
2023-01-22T22:46:34.631Z,3.05
2023-01-22T22:49:02.402Z,4.93
2023-01-22T22:51:32.679Z,4.50
2023-01-22T22:54:02.477Z,4.25
2023-01-22T23:00:35.864Z,3.45
2023-01-22T23:03:03.134Z,4.22
2023-01-22T23:05:29.935Z,3.55
2023-01-22T23:07:56.753Z,4.57
2023-01-22T23:10:29.665Z,4.90
2023-01-22T23:13:01.720Z,4.70
2023-01-22T23:15:30.482Z,3.83
2023-01-22T23:17:58.801Z,3.67
2023-01-22T23:20:26.335Z,3.95
2023-01-22T23:22:57.692Z,4.60
2023-01-22T23:25:25.497Z,5.45
2023-01-22T23:27:52.598Z,5.15
2023-01-22T23:30:20.493Z,4.35
2023-01-22T23:32:47.300Z,3.28
2023-01-22T23:35:14.151Z,3.72
2023-01-22T23:37:40.907Z,2.78
2023-01-22T23:40:08.270Z,2.30
2023-01-22T23:42:35.044Z,2.70
2023-01-22T23:45:01.979Z,2.50
2023-01-22T23:47:30.555Z,3.30
2023-01-22T23:49:57.400Z,2.42
2023-01-22T23:52:24.216Z,3.15
2023-01-22T23:54:51.050Z,3.83
2023-01-22T23:57:17.914Z,3.17
2023-01-22T23:59:44.753Z,3.35
